sensor_id;sensor_type;location;lat;lon;timestamp;pressure;altitude;pressure_sealevel;temperature;humidity
47809;BME280;33573;38.790;-77.084;2023-04-30T00:22:48;100447.15;;;22.92;30.78
47809;BME280;33573;38.790;-77.084;2023-04-30T00:46:57;100500.80;;;22.81;30.88
47809;BME280;33573;38.790;-77.084;2023-04-30T00:51:53;100501.12;;;23.01;30.47
47809;BME280;33573;38.790;-77.084;2023-04-30T01:35:52;100502.43;;;22.55;31.13
47809;BME280;33573;38.790;-77.084;2023-04-30T01:38:04;100492.46;;;23.15;30.06
47809;BME280;33573;38.790;-77.084;2023-04-30T01:47:43;100510.91;;;22.72;31.09
47809;BME280;33573;38.790;-77.084;2023-04-30T01:57:31;100498.03;;;22.08;31.85
47809;BME280;33573;38.790;-77.084;2023-04-30T02:19:03;100466.75;;;21.81;32.26
47809;BME280;33573;38.790;-77.084;2023-04-30T02:21:28;100460.65;;;22.03;31.95
47809;BME280;33573;38.790;-77.084;2023-04-30T02:23:57;100459.79;;;21.89;32.10
47809;BME280;33573;38.790;-77.084;2023-04-30T02:26:24;100456.45;;;21.46;32.27
47809;BME280;33573;38.790;-77.084;2023-04-30T02:28:50;100453.67;;;21.19;32.51
47809;BME280;33573;38.790;-77.084;2023-04-30T02:31:10;100444.80;;;21.55;33.23
47809;BME280;33573;38.790;-77.084;2023-04-30T02:33:36;100435.90;;;21.68;32.88
47809;BME280;33573;38.790;-77.084;2023-04-30T02:36:06;100424.78;;;21.91;32.25
47809;BME280;33573;38.790;-77.084;2023-04-30T02:38:28;100412.36;;;21.68;32.45
47809;BME280;33573;38.790;-77.084;2023-04-30T02:40:57;100411.68;;;21.77;32.30
47809;BME280;33573;38.790;-77.084;2023-04-30T02:45:46;100390.64;;;21.60;32.59
47809;BME280;33573;38.790;-77.084;2023-04-30T02:52:59;100384.28;;;21.45;32.65
47809;BME280;33573;38.790;-77.084;2023-04-30T03:00:37;100380.10;;;21.47;32.65
47809;BME280;33573;38.790;-77.084;2023-04-30T03:02:41;100384.69;;;22.05;32.00
47809;BME280;33573;38.790;-77.084;2023-04-30T03:05:13;100380.55;;;21.93;32.12
47809;BME280;33573;38.790;-77.084;2023-04-30T03:07:31;100382.99;;;22.18;31.97
47809;BME280;33573;38.790;-77.084;2023-04-30T03:12:23;100354.94;;;21.66;32.13
47809;BME280;33573;38.790;-77.084;2023-04-30T03:14:53;100348.53;;;21.34;32.45
47809;BME280;33573;38.790;-77.084;2023-04-30T03:17:13;100349.46;;;21.75;32.31
47809;BME280;33573;38.790;-77.084;2023-04-30T03:19:39;100340.86;;;22.01;31.86
47809;BME280;33573;38.790;-77.084;2023-04-30T03:22:04;100336.74;;;21.84;31.63
47809;BME280;33573;38.790;-77.084;2023-04-30T03:24:30;100321.98;;;23.10;30.68
47809;BME280;33573;38.790;-77.084;2023-04-30T03:26:55;100318.95;;;23.23;30.28
47809;BME280;33573;38.790;-77.084;2023-04-30T03:31:46;100320.32;;;23.27;30.31
47809;BME280;33573;38.790;-77.084;2023-04-30T03:34:25;100321.84;;;23.08;30.35
47809;BME280;33573;38.790;-77.084;2023-04-30T03:36:38;100329.82;;;23.10;30.43
47809;BME280;33573;38.790;-77.084;2023-04-30T03:39:03;100328.98;;;22.83;30.71
47809;BME280;33573;38.790;-77.084;2023-04-30T03:41:28;100323.24;;;22.70;30.79
47809;BME280;33573;38.790;-77.084;2023-04-30T03:43:53;100313.40;;;23.00;30.58
47809;BME280;33573;38.790;-77.084;2023-04-30T03:46:24;100306.13;;;22.69;30.60
47809;BME280;33573;38.790;-77.084;2023-04-30T03:48:44;100299.47;;;23.10;30.23
47809;BME280;33573;38.790;-77.084;2023-04-30T03:51:20;100297.27;;;23.39;30.13
47809;BME280;33573;38.790;-77.084;2023-04-30T03:53:40;100289.03;;;23.42;30.09
47809;BME280;33573;38.790;-77.084;2023-04-30T03:56:01;100294.43;;;23.34;29.95
47809;BME280;33573;38.790;-77.084;2023-04-30T03:58:26;100299.88;;;23.53;29.89
47809;BME280;33573;38.790;-77.084;2023-04-30T04:00:52;100295.30;;;22.64;30.54
47809;BME280;33573;38.790;-77.084;2023-04-30T04:05:42;100292.08;;;22.95;29.91
47809;BME280;33573;38.790;-77.084;2023-04-30T04:08:08;100296.72;;;23.74;29.52
47809;BME280;33573;38.790;-77.084;2023-04-30T04:10:38;100307.96;;;23.46;29.63
47809;BME280;33573;38.790;-77.084;2023-04-30T04:12:58;100308.35;;;23.15;30.02
47809;BME280;33573;38.790;-77.084;2023-04-30T04:15:24;100303.63;;;23.17;30.04
47809;BME280;33573;38.790;-77.084;2023-04-30T04:17:50;100300.92;;;22.72;30.57
47809;BME280;33573;38.790;-77.084;2023-04-30T04:20:15;100302.17;;;22.99;30.48
47809;BME280;33573;38.790;-77.084;2023-04-30T04:22:45;100311.17;;;22.61;30.50
47809;BME280;33573;38.790;-77.084;2023-04-30T04:25:10;100318.42;;;23.03;30.28
47809;BME280;33573;38.790;-77.084;2023-04-30T04:32:29;100330.82;;;23.23;29.90
47809;BME280;33573;38.790;-77.084;2023-04-30T04:34:53;100333.13;;;23.29;30.16
47809;BME280;33573;38.790;-77.084;2023-04-30T04:37:13;100329.80;;;23.46;29.91
47809;BME280;33573;38.790;-77.084;2023-04-30T04:39:38;100327.27;;;23.32;30.19
47809;BME280;33573;38.790;-77.084;2023-04-30T04:42:03;100325.09;;;23.59;29.83
47809;BME280;33573;38.790;-77.084;2023-04-30T04:44:34;100321.02;;;23.40;29.65
47809;BME280;33573;38.790;-77.084;2023-04-30T04:46:54;100320.38;;;23.43;29.61
47809;BME280;33573;38.790;-77.084;2023-04-30T04:49:20;100319.47;;;23.40;29.90
47809;BME280;33573;38.790;-77.084;2023-04-30T04:51:45;100314.65;;;23.16;29.84
47809;BME280;33573;38.790;-77.084;2023-04-30T04:54:10;100304.97;;;23.35;29.92
47809;BME280;33573;38.790;-77.084;2023-04-30T04:56:36;100300.76;;;23.37;29.92
47809;BME280;33573;38.790;-77.084;2023-04-30T04:59:01;100303.00;;;23.41;29.82
47809;BME280;33573;38.790;-77.084;2023-04-30T05:01:27;100308.33;;;23.37;29.56
47809;BME280;33573;38.790;-77.084;2023-04-30T05:03:52;100310.61;;;23.21;29.71
47809;BME280;33573;38.790;-77.084;2023-04-30T05:06:27;100308.20;;;23.16;30.15
47809;BME280;33573;38.790;-77.084;2023-04-30T05:08:43;100291.82;;;23.16;30.11
47809;BME280;33573;38.790;-77.084;2023-04-30T05:11:08;100275.88;;;23.17;29.98
47809;BME280;33573;38.790;-77.084;2023-04-30T05:13:34;100257.87;;;23.25;30.25
47809;BME280;33573;38.790;-77.084;2023-04-30T05:15:59;100238.59;;;23.01;30.20
47809;BME280;33573;38.790;-77.084;2023-04-30T05:18:25;100220.63;;;23.09;30.29
47809;BME280;33573;38.790;-77.084;2023-04-30T05:20:50;100209.18;;;22.94;30.40
47809;BME280;33573;38.790;-77.084;2023-04-30T05:23:20;100205.64;;;22.77;30.30
47809;BME280;33573;38.790;-77.084;2023-04-30T05:28:07;100261.89;;;23.06;30.26
47809;BME280;33573;38.790;-77.084;2023-04-30T05:30:32;100254.54;;;23.28;29.98
47809;BME280;33573;38.790;-77.084;2023-04-30T05:33:02;100252.98;;;23.53;29.54
47809;BME280;33573;38.790;-77.084;2023-04-30T05:35:32;100255.23;;;23.60;29.45
47809;BME280;33573;38.790;-77.084;2023-04-30T05:37:48;100261.41;;;23.36;29.73
47809;BME280;33573;38.790;-77.084;2023-04-30T05:40:14;100246.93;;;23.22;29.60
47809;BME280;33573;38.790;-77.084;2023-04-30T05:42:44;100235.96;;;23.52;29.53
47809;BME280;33573;38.790;-77.084;2023-04-30T05:45:11;100223.08;;;23.07;30.02
47809;BME280;33573;38.790;-77.084;2023-04-30T05:47:35;100220.25;;;23.30;29.88
47809;BME280;33573;38.790;-77.084;2023-04-30T05:49:56;100217.23;;;23.16;29.93
47809;BME280;33573;38.790;-77.084;2023-04-30T05:52:26;100209.21;;;23.08;29.72
47809;BME280;33573;38.790;-77.084;2023-04-30T05:55:22;100201.17;;;23.26;29.85
47809;BME280;33573;38.790;-77.084;2023-04-30T06:02:02;100159.48;;;23.01;29.98
47809;BME280;33573;38.790;-77.084;2023-04-30T06:04:42;100143.59;;;23.39;29.61
47809;BME280;33573;38.790;-77.084;2023-04-30T06:06:53;100132.62;;;23.01;29.74
47809;BME280;33573;38.790;-77.084;2023-04-30T06:09:33;100133.75;;;23.09;29.88
47809;BME280;33573;38.790;-77.084;2023-04-30T06:11:44;100120.95;;;23.07;29.98
47809;BME280;33573;38.790;-77.084;2023-04-30T06:14:14;100114.70;;;22.72;30.18
47809;BME280;33573;38.790;-77.084;2023-04-30T06:16:35;100111.24;;;22.67;30.33
47809;BME280;33573;38.790;-77.084;2023-04-30T06:19:09;100114.20;;;22.87;30.21
47809;BME280;33573;38.790;-77.084;2023-04-30T06:21:31;100116.47;;;22.82;30.08
47809;BME280;33573;38.790;-77.084;2023-04-30T06:23:51;100115.63;;;22.81;30.21
47809;BME280;33573;38.790;-77.084;2023-04-30T06:26:16;100094.48;;;22.91;30.00
47809;BME280;33573;38.790;-77.084;2023-04-30T06:28:42;100088.25;;;22.94;30.10
47809;BME280;33573;38.790;-77.084;2023-04-30T06:31:07;100095.05;;;22.87;30.21
47809;BME280;33573;38.790;-77.084;2023-04-30T06:35:58;100083.26;;;23.58;29.55
47809;BME280;33573;38.790;-77.084;2023-04-30T06:38:23;100072.39;;;23.72;29.61
47809;BME280;33573;38.790;-77.084;2023-04-30T06:40:49;100067.07;;;23.03;29.57
47809;BME280;33573;38.790;-77.084;2023-04-30T06:43:16;100057.22;;;23.14;29.84
47809;BME280;33573;38.790;-77.084;2023-04-30T06:45:40;100047.74;;;23.03;29.90
47809;BME280;33573;38.790;-77.084;2023-04-30T06:48:05;100043.38;;;22.84;29.93
47809;BME280;33573;38.790;-77.084;2023-04-30T06:50:36;100032.74;;;23.20;29.74
47809;BME280;33573;38.790;-77.084;2023-04-30T06:55:31;100020.16;;;23.26;29.95
47809;BME280;33573;38.790;-77.084;2023-04-30T06:57:47;100009.18;;;22.57;30.48
47809;BME280;33573;38.790;-77.084;2023-04-30T07:02:39;100006.54;;;22.78;30.15
47809;BME280;33573;38.790;-77.084;2023-04-30T07:05:03;100006.95;;;22.86;30.03
47809;BME280;33573;38.790;-77.084;2023-04-30T07:07:29;99999.22;;;22.49;30.22
47809;BME280;33573;38.790;-77.084;2023-04-30T07:09:54;100000.09;;;22.86;30.11
47809;BME280;33573;38.790;-77.084;2023-04-30T07:12:19;99998.30;;;22.62;30.40
47809;BME280;33573;38.790;-77.084;2023-04-30T07:14:45;99989.95;;;22.58;29.93
47809;BME280;33573;38.790;-77.084;2023-04-30T07:17:10;99987.58;;;22.77;30.11
47809;BME280;33573;38.790;-77.084;2023-04-30T07:19:36;99983.20;;;22.53;30.31
47809;BME280;33573;38.790;-77.084;2023-04-30T07:22:01;99984.73;;;22.64;30.27
47809;BME280;33573;38.790;-77.084;2023-04-30T07:24:26;99988.03;;;22.62;30.25
47809;BME280;33573;38.790;-77.084;2023-04-30T07:26:52;99980.17;;;22.50;30.60
47809;BME280;33573;38.790;-77.084;2023-04-30T07:29:22;99975.20;;;22.43;30.24
47809;BME280;33573;38.790;-77.084;2023-04-30T07:31:43;99963.64;;;22.94;29.82
47809;BME280;33573;38.790;-77.084;2023-04-30T07:34:08;99962.00;;;23.12;29.44
47809;BME280;33573;38.790;-77.084;2023-04-30T07:36:33;99961.51;;;23.10;29.43
47809;BME280;33573;38.790;-77.084;2023-04-30T07:38:59;99959.92;;;22.91;29.62
47809;BME280;33573;38.790;-77.084;2023-04-30T07:41:24;99953.31;;;22.53;29.79
47809;BME280;33573;38.790;-77.084;2023-04-30T07:43:50;99952.43;;;23.02;29.51
47809;BME280;33573;38.790;-77.084;2023-04-30T07:46:24;99956.10;;;22.65;29.80
47809;BME280;33573;38.790;-77.084;2023-04-30T07:48:40;99952.66;;;22.46;30.08
47809;BME280;33573;38.790;-77.084;2023-04-30T07:51:06;99952.02;;;22.11;30.14
47809;BME280;33573;38.790;-77.084;2023-04-30T07:53:31;99946.93;;;22.90;29.84
47809;BME280;33573;38.790;-77.084;2023-04-30T07:55:56;99941.70;;;23.04;29.58
47809;BME280;33573;38.790;-77.084;2023-04-30T07:58:22;99937.31;;;22.84;29.68
47809;BME280;33573;38.790;-77.084;2023-04-30T08:00:47;99935.21;;;22.89;29.68
47809;BME280;33573;38.790;-77.084;2023-04-30T08:03:23;99931.29;;;22.74;29.76
47809;BME280;33573;38.790;-77.084;2023-04-30T08:05:52;99930.06;;;22.63;29.89
47809;BME280;33573;38.790;-77.084;2023-04-30T08:08:34;99925.65;;;22.65;29.87
47809;BME280;33573;38.790;-77.084;2023-04-30T08:10:30;99913.81;;;22.77;29.70
47809;BME280;33573;38.790;-77.084;2023-04-30T08:12:59;99913.18;;;22.79;29.76
47809;BME280;33573;38.790;-77.084;2023-04-30T08:15:25;99910.10;;;22.88;29.56
47809;BME280;33573;38.790;-77.084;2023-04-30T08:17:45;99903.62;;;23.25;29.18
47809;BME280;33573;38.790;-77.084;2023-04-30T08:20:16;99897.48;;;23.00;29.41
47809;BME280;33573;38.790;-77.084;2023-04-30T08:32:43;99868.72;;;23.04;29.42
47809;BME280;33573;38.790;-77.084;2023-04-30T08:34:48;99868.53;;;23.04;29.34
47809;BME280;33573;38.790;-77.084;2023-04-30T08:37:18;99865.25;;;23.15;29.31
47809;BME280;33573;38.790;-77.084;2023-04-30T08:39:39;99862.71;;;22.76;29.59
47809;BME280;33573;38.790;-77.084;2023-04-30T08:42:18;99858.68;;;23.26;29.32
47809;BME280;33573;38.790;-77.084;2023-04-30T08:44:34;99857.33;;;23.35;29.19
47809;BME280;33573;38.790;-77.084;2023-04-30T08:46:53;99859.34;;;23.36;29.47
47809;BME280;33573;38.790;-77.084;2023-04-30T08:49:21;99857.07;;;22.55;29.91
47809;BME280;33573;38.790;-77.084;2023-04-30T08:54:09;99841.71;;;22.76;29.97
47809;BME280;33573;38.790;-77.084;2023-04-30T08:59:12;99835.32;;;22.95;29.42
47809;BME280;33573;38.790;-77.084;2023-04-30T09:03:48;99817.93;;;22.95;29.48
47809;BME280;33573;38.790;-77.084;2023-04-30T09:06:23;99820.95;;;23.02;29.30
47809;BME280;33573;38.790;-77.084;2023-04-30T09:08:45;99830.91;;;23.32;29.18
47809;BME280;33573;38.790;-77.084;2023-04-30T09:15:59;99821.33;;;23.32;29.15
47809;BME280;33573;38.790;-77.084;2023-04-30T09:18:26;99822.33;;;23.03;29.24
47809;BME280;33573;38.790;-77.084;2023-04-30T09:20:56;99842.80;;;23.01;29.22
47809;BME280;33573;38.790;-77.084;2023-04-30T09:23:21;99847.44;;;23.00;29.54
47809;BME280;33573;38.790;-77.084;2023-04-30T09:25:38;99840.77;;;23.02;29.18
47809;BME280;33573;38.790;-77.084;2023-04-30T09:30:33;99840.05;;;23.08;29.66
47809;BME280;33573;38.790;-77.084;2023-04-30T09:32:58;99822.19;;;23.16;29.60
47809;BME280;33573;38.790;-77.084;2023-04-30T09:37:44;99803.22;;;23.20;29.45
47809;BME280;33573;38.790;-77.084;2023-04-30T09:42:35;99788.98;;;22.73;29.52
47809;BME280;33573;38.790;-77.084;2023-04-30T09:49:52;99767.43;;;23.06;29.43
47809;BME280;33573;38.790;-77.084;2023-04-30T09:52:22;99763.19;;;22.61;30.31
47809;BME280;33573;38.790;-77.084;2023-04-30T09:54:43;99759.69;;;22.73;29.91
47809;BME280;33573;38.790;-77.084;2023-04-30T09:57:10;99769.71;;;22.80;29.74
47809;BME280;33573;38.790;-77.084;2023-04-30T09:59:38;99762.65;;;22.87;29.73
47809;BME280;33573;38.790;-77.084;2023-04-30T10:01:59;99757.22;;;22.85;29.77
47809;BME280;33573;38.790;-77.084;2023-04-30T10:04:25;99744.63;;;22.70;29.60
47809;BME280;33573;38.790;-77.084;2023-04-30T10:06:54;99750.77;;;22.25;30.08
47809;BME280;33573;38.790;-77.084;2023-04-30T10:09:14;99743.43;;;22.48;29.84
47809;BME280;33573;38.790;-77.084;2023-04-30T10:11:46;99735.33;;;22.39;29.91
47809;BME280;33573;38.790;-77.084;2023-04-30T10:14:12;99723.99;;;22.17;30.18
47809;BME280;33573;38.790;-77.084;2023-04-30T10:16:36;99715.68;;;22.30;29.94
47809;BME280;33573;38.790;-77.084;2023-04-30T10:19:01;99711.66;;;22.11;30.05
47809;BME280;33573;38.790;-77.084;2023-04-30T10:21:24;99715.96;;;22.30;29.97
47809;BME280;33573;38.790;-77.084;2023-04-30T10:23:47;99719.79;;;22.62;29.80
47809;BME280;33573;38.790;-77.084;2023-04-30T10:26:13;99711.84;;;22.19;29.86
47809;BME280;33573;38.790;-77.084;2023-04-30T10:28:38;99708.64;;;22.55;29.83
47809;BME280;33573;38.790;-77.084;2023-04-30T10:31:25;99709.22;;;22.64;30.37
47809;BME280;33573;38.790;-77.084;2023-04-30T10:33:35;99709.81;;;22.52;30.27
47809;BME280;33573;38.790;-77.084;2023-04-30T10:35:58;99712.09;;;22.89;29.68
47809;BME280;33573;38.790;-77.084;2023-04-30T10:38:22;99712.09;;;22.84;29.48
47809;BME280;33573;38.790;-77.084;2023-04-30T10:45:42;99715.26;;;23.56;29.39
47809;BME280;33573;38.790;-77.084;2023-04-30T10:48:32;99708.61;;;22.93;29.71
47809;BME280;33573;38.790;-77.084;2023-04-30T10:50:26;99701.60;;;22.87;29.94
47809;BME280;33573;38.790;-77.084;2023-04-30T10:53:00;99692.50;;;23.14;29.32
47809;BME280;33573;38.790;-77.084;2023-04-30T10:55:17;99683.32;;;22.81;30.03
47809;BME280;33573;38.790;-77.084;2023-04-30T10:57:48;99677.64;;;22.90;29.50
47809;BME280;33573;38.790;-77.084;2023-04-30T11:05:14;99696.94;;;22.89;29.90
47809;BME280;33573;38.790;-77.084;2023-04-30T11:09:56;99705.41;;;23.13;29.75
47809;BME280;33573;38.790;-77.084;2023-04-30T11:12:19;99715.11;;;22.59;30.00
47809;BME280;33573;38.790;-77.084;2023-04-30T11:14:42;99707.73;;;22.59;30.07
47809;BME280;33573;38.790;-77.084;2023-04-30T11:17:06;99690.27;;;22.78;29.75
47809;BME280;33573;38.790;-77.084;2023-04-30T11:19:32;99687.78;;;22.93;29.67
47809;BME280;33573;38.790;-77.084;2023-04-30T11:22:15;99692.37;;;23.01;29.56
47809;BME280;33573;38.790;-77.084;2023-04-30T11:24:22;99688.06;;;22.83;29.81
47809;BME280;33573;38.790;-77.084;2023-04-30T11:27:02;99694.88;;;22.69;29.92
47809;BME280;33573;38.790;-77.084;2023-04-30T11:29:13;99701.02;;;22.55;29.73
47809;BME280;33573;38.790;-77.084;2023-04-30T11:31:38;99708.42;;;22.68;29.74
47809;BME280;33573;38.790;-77.084;2023-04-30T11:34:04;99712.23;;;22.83;29.72
47809;BME280;33573;38.790;-77.084;2023-04-30T11:36:31;99733.23;;;21.69;31.30
47809;BME280;33573;38.790;-77.084;2023-04-30T11:38:55;99732.16;;;21.73;31.02
47809;BME280;33573;38.790;-77.084;2023-04-30T11:41:20;99728.11;;;21.87;31.03
47809;BME280;33573;38.790;-77.084;2023-04-30T11:43:45;99724.53;;;21.80;31.04
47809;BME280;33573;38.790;-77.084;2023-04-30T11:46:12;99714.96;;;22.13;31.00
47809;BME280;33573;38.790;-77.084;2023-04-30T11:48:44;99703.14;;;22.05;30.71
47809;BME280;33573;38.790;-77.084;2023-04-30T11:51:15;99698.71;;;22.00;30.63
47809;BME280;33573;38.790;-77.084;2023-04-30T11:53:34;99687.64;;;22.69;30.10
47809;BME280;33573;38.790;-77.084;2023-04-30T11:55:53;99673.94;;;22.49;30.12
47809;BME280;33573;38.790;-77.084;2023-04-30T11:58:18;99663.21;;;22.57;30.00
47809;BME280;33573;38.790;-77.084;2023-04-30T12:00:49;99651.83;;;22.57;29.92
47809;BME280;33573;38.790;-77.084;2023-04-30T12:03:09;99648.90;;;22.71;29.92
47809;BME280;33573;38.790;-77.084;2023-04-30T12:05:40;99639.72;;;22.71;29.96
47809;BME280;33573;38.790;-77.084;2023-04-30T12:08:01;99635.50;;;22.99;29.68
47809;BME280;33573;38.790;-77.084;2023-04-30T12:10:25;99644.34;;;22.93;29.81
47809;BME280;33573;38.790;-77.084;2023-04-30T12:12:51;99650.17;;;22.75;29.76
47809;BME280;33573;38.790;-77.084;2023-04-30T12:15:17;99647.14;;;23.16;29.92
47809;BME280;33573;38.790;-77.084;2023-04-30T12:17:42;99641.21;;;22.91;29.64
47809;BME280;33573;38.790;-77.084;2023-04-30T12:20:16;99630.08;;;22.58;29.97
47809;BME280;33573;38.790;-77.084;2023-04-30T12:25:06;99608.76;;;22.68;29.95
47809;BME280;33573;38.790;-77.084;2023-04-30T12:27:24;99613.92;;;22.39;30.15
47809;BME280;33573;38.790;-77.084;2023-04-30T12:34:45;99616.98;;;22.62;29.95
47809;BME280;33573;38.790;-77.084;2023-04-30T12:37:10;99610.81;;;22.85;29.89
47809;BME280;33573;38.790;-77.084;2023-04-30T12:39:33;99601.79;;;22.10;30.62
47809;BME280;33573;38.790;-77.084;2023-04-30T12:46:53;99608.03;;;22.90;29.88
47809;BME280;33573;38.790;-77.084;2023-04-30T12:49:23;99603.59;;;22.58;30.00
47809;BME280;33573;38.790;-77.084;2023-04-30T12:51:42;99597.99;;;22.56;30.06
47809;BME280;33573;38.790;-77.084;2023-04-30T12:54:07;99599.83;;;22.35;30.26
47809;BME280;33573;38.790;-77.084;2023-04-30T12:56:28;99596.43;;;22.59;29.94
47809;BME280;33573;38.790;-77.084;2023-04-30T12:58:58;99593.34;;;22.63;29.98
47809;BME280;33573;38.790;-77.084;2023-04-30T13:01:24;99590.04;;;22.10;30.35
47809;BME280;33573;38.790;-77.084;2023-04-30T13:06:15;99573.25;;;21.21;32.16
47809;BME280;33573;38.790;-77.084;2023-04-30T13:08:35;99563.35;;;20.85;31.95
47809;BME280;33573;38.790;-77.084;2023-04-30T13:11:00;99556.76;;;21.37;31.84
47809;BME280;33573;38.790;-77.084;2023-04-30T13:13:31;99544.74;;;21.22;32.22
47809;BME280;33573;38.790;-77.084;2023-04-30T13:15:57;99541.90;;;21.21;32.09
47809;BME280;33573;38.790;-77.084;2023-04-30T13:18:21;99540.94;;;20.97;32.29
47809;BME280;33573;38.790;-77.084;2023-04-30T13:20:42;99530.27;;;20.92;32.22
47809;BME280;33573;38.790;-77.084;2023-04-30T13:23:07;99512.17;;;20.80;32.14
47809;BME280;33573;38.790;-77.084;2023-04-30T13:25:33;99500.43;;;22.11;31.25
47809;BME280;33573;38.790;-77.084;2023-04-30T13:28:03;99494.70;;;21.86;31.26
47809;BME280;33573;38.790;-77.084;2023-04-30T13:30:24;99490.78;;;21.37;31.95
47809;BME280;33573;38.790;-77.084;2023-04-30T13:32:49;99485.28;;;21.21;32.16
47809;BME280;33573;38.790;-77.084;2023-04-30T13:35:15;99475.78;;;20.98;32.20
47809;BME280;33573;38.790;-77.084;2023-04-30T13:37:40;99468.63;;;20.83;32.79
47809;BME280;33573;38.790;-77.084;2023-04-30T13:40:07;99462.77;;;21.12;32.59
47809;BME280;33573;38.790;-77.084;2023-04-30T13:42:37;99458.57;;;21.14;32.85
47809;BME280;33573;38.790;-77.084;2023-04-30T13:45:01;99466.62;;;21.69;32.19
47809;BME280;33573;38.790;-77.084;2023-04-30T13:47:22;99467.67;;;21.17;33.13
47809;BME280;33573;38.790;-77.084;2023-04-30T13:49:52;99469.51;;;20.78;33.30
47809;BME280;33573;38.790;-77.084;2023-04-30T13:52:13;99455.40;;;21.01;33.41
47809;BME280;33573;38.790;-77.084;2023-04-30T13:54:38;99434.96;;;20.68;33.77
47809;BME280;33573;38.790;-77.084;2023-04-30T13:57:03;99430.92;;;20.75;33.93
47809;BME280;33573;38.790;-77.084;2023-04-30T13:59:29;99436.99;;;21.11;33.68
47809;BME280;33573;38.790;-77.084;2023-04-30T14:01:59;99438.60;;;21.24;33.29
47809;BME280;33573;38.790;-77.084;2023-04-30T14:04:19;99431.47;;;21.13;33.12
47809;BME280;33573;38.790;-77.084;2023-04-30T14:06:51;99421.86;;;21.29;33.05
47809;BME280;33573;38.790;-77.084;2023-04-30T14:09:10;99411.90;;;20.99;33.01
47809;BME280;33573;38.790;-77.084;2023-04-30T14:11:41;99406.16;;;21.53;32.96
47809;BME280;33573;38.790;-77.084;2023-04-30T14:14:01;99396.92;;;21.61;32.68
47809;BME280;33573;38.790;-77.084;2023-04-30T14:16:32;99390.80;;;21.54;32.44
47809;BME280;33573;38.790;-77.084;2023-04-30T14:18:57;99391.00;;;21.90;33.68
47809;BME280;33573;38.790;-77.084;2023-04-30T14:21:18;99376.97;;;21.66;33.35
47809;BME280;33573;38.790;-77.084;2023-04-30T14:23:48;99369.03;;;21.94;32.66
47809;BME280;33573;38.790;-77.084;2023-04-30T14:26:08;99363.88;;;21.74;32.90
47809;BME280;33573;38.790;-77.084;2023-04-30T14:28:33;99359.67;;;21.60;32.77
47809;BME280;33573;38.790;-77.084;2023-04-30T14:30:59;99349.68;;;21.81;32.66
47809;BME280;33573;38.790;-77.084;2023-04-30T14:33:24;99336.82;;;21.25;33.48
47809;BME280;33573;38.790;-77.084;2023-04-30T14:35:50;99333.39;;;20.76;33.73
47809;BME280;33573;38.790;-77.084;2023-04-30T14:38:15;99332.05;;;21.02;33.71
47809;BME280;33573;38.790;-77.084;2023-04-30T14:40:42;99326.58;;;21.00;33.40
47809;BME280;33573;38.790;-77.084;2023-04-30T14:43:06;99317.24;;;21.36;33.58
47809;BME280;33573;38.790;-77.084;2023-04-30T14:45:37;99316.25;;;21.42;33.10
47809;BME280;33573;38.790;-77.084;2023-04-30T14:47:57;99306.78;;;21.28;33.65
47809;BME280;33573;38.790;-77.084;2023-04-30T14:50:22;99308.06;;;20.86;33.75
47809;BME280;33573;38.790;-77.084;2023-04-30T14:53:07;99309.34;;;20.85;34.05
47809;BME280;33573;38.790;-77.084;2023-04-30T14:55:42;99305.81;;;20.73;34.17
47809;BME280;33573;38.790;-77.084;2023-04-30T15:00:29;99309.99;;;20.96;33.87
47809;BME280;33573;38.790;-77.084;2023-04-30T15:02:29;99289.96;;;21.04;33.55
47809;BME280;33573;38.790;-77.084;2023-04-30T15:04:55;99280.35;;;21.10;33.66
47809;BME280;33573;38.790;-77.084;2023-04-30T15:07:22;99271.80;;;20.76;33.85
47809;BME280;33573;38.790;-77.084;2023-04-30T15:12:17;99269.37;;;21.18;33.32
47809;BME280;33573;38.790;-77.084;2023-04-30T15:17:03;99260.45;;;20.67;33.91
47809;BME280;33573;38.790;-77.084;2023-04-30T15:19:28;99249.23;;;21.05;33.75
47809;BME280;33573;38.790;-77.084;2023-04-30T15:22:14;99234.34;;;21.29;33.65
47809;BME280;33573;38.790;-77.084;2023-04-30T15:24:33;99236.76;;;21.00;33.77
47809;BME280;33573;38.790;-77.084;2023-04-30T15:26:58;99239.95;;;21.25;33.32
47809;BME280;33573;38.790;-77.084;2023-04-30T15:29:18;99231.80;;;22.29;31.98
47809;BME280;33573;38.790;-77.084;2023-04-30T15:31:34;99233.50;;;22.28;32.19
47809;BME280;33573;38.790;-77.084;2023-04-30T15:33:59;99235.36;;;21.63;32.66
47809;BME280;33573;38.790;-77.084;2023-04-30T15:36:30;99236.13;;;21.18;33.24
47809;BME280;33573;38.790;-77.084;2023-04-30T15:38:50;99235.95;;;21.89;32.68
47809;BME280;33573;38.790;-77.084;2023-04-30T15:41:16;99227.60;;;21.83;32.75
47809;BME280;33573;38.790;-77.084;2023-04-30T15:43:41;99215.74;;;21.94;32.38
47809;BME280;33573;38.790;-77.084;2023-04-30T15:46:07;99209.80;;;21.66;32.64
47809;BME280;33573;38.790;-77.084;2023-04-30T15:48:37;99195.59;;;21.59;32.84
47809;BME280;33573;38.790;-77.084;2023-04-30T15:51:03;99187.52;;;21.43;33.07
47809;BME280;33573;38.790;-77.084;2023-04-30T15:53:23;99177.71;;;21.41;33.10
47809;BME280;33573;38.790;-77.084;2023-04-30T15:55:48;99174.10;;;21.59;32.92
47809;BME280;33573;38.790;-77.084;2023-04-30T15:58:14;99177.28;;;21.53;32.95
47809;BME280;33573;38.790;-77.084;2023-04-30T16:00:39;99174.99;;;21.64;33.28
47809;BME280;33573;38.790;-77.084;2023-04-30T16:03:09;99173.97;;;20.86;33.73
47809;BME280;33573;38.790;-77.084;2023-04-30T16:05:30;99169.00;;;21.42;33.22
47809;BME280;33573;38.790;-77.084;2023-04-30T16:07:55;99155.08;;;21.61;32.79
47809;BME280;33573;38.790;-77.084;2023-04-30T16:10:21;99152.53;;;21.18;33.31
47809;BME280;33573;38.790;-77.084;2023-04-30T16:12:47;99142.37;;;21.22;33.71